Time;durP1;ratioP1;P1;durP2;ratioP2;P2;SDS_P1;SDS_P2;PMS_P1;PMS_P2;Temp;Humidity;BMP_temperature;BMP_pressure;BME280_temperature;BME280_humidity;BME280_pressure;Samples;Min_cycle;Max_cycle;Signal;HPM_P1;HPM_P2
2022/01/04 00:01:57;;;;;;;9.13;1.92;;;11.10;83.90;;;;;;5066420;28;20495;-77
2022/01/04 00:04:24;;;;;;;7.88;2.20;;;11.00;83.80;;;;;;5066545;28;20052;-76
2022/01/04 00:06:50;;;;;;;8.98;2.65;;;11.10;84.00;;;;;;5067254;28;20048;-77
2022/01/04 00:09:16;;;;;;;7.60;3.08;;;11.00;83.80;;;;;;5048005;28;20625;-77
2022/01/04 00:14:17;;;;;;;6.72;2.13;;;11.00;83.80;;;;;;5066445;28;20387;-76
2022/01/04 00:16:44;;;;;;;10.18;2.60;;;11.00;83.80;;;;;;5066795;28;20036;-76
2022/01/04 00:19:10;;;;;;;10.82;3.55;;;11.00;83.90;;;;;;5048281;28;20040;-77
2022/01/04 00:21:38;;;;;;;9.10;1.92;;;11.00;83.90;;;;;;5066716;28;20083;-77
2022/01/04 00:24:04;;;;;;;6.25;2.38;;;11.00;83.90;;;;;;5062070;28;20063;-77
2022/01/04 00:26:30;;;;;;;10.57;3.25;;;11.00;83.90;;;;;;5046500;28;20049;-77
2022/01/04 00:28:57;;;;;;;8.35;2.60;;;11.00;83.90;;;;;;5046765;28;20106;-77
2022/01/04 00:31:23;;;;;;;7.68;2.08;;;10.90;83.70;;;;;;5046933;28;20033;-77
2022/01/04 00:33:50;;;;;;;7.28;2.25;;;10.90;83.70;;;;;;5046232;28;20036;-77
2022/01/04 00:36:16;;;;;;;11.32;2.47;;;10.90;83.80;;;;;;5028877;28;20340;-76
2022/01/04 00:38:43;;;;;;;9.65;2.10;;;10.90;83.80;;;;;;5046221;28;20020;-76
2022/01/04 00:41:09;;;;;;;6.05;3.90;;;10.90;83.80;;;;;;5045303;28;20064;-77
2022/01/04 00:43:35;;;;;;;7.45;2.35;;;10.80;83.70;;;;;;5046521;28;20041;-78
2022/01/04 00:46:01;;;;;;;8.20;2.95;;;10.80;83.70;;;;;;5028784;28;20036;-78
2022/01/04 00:50:54;;;;;;;9.10;2.00;;;10.80;83.80;;;;;;5027661;28;20030;-75
2022/01/04 00:53:21;;;;;;;9.52;3.10;;;10.80;83.80;;;;;;5026977;28;20034;-77
2022/01/04 00:55:48;;;;;;;6.22;1.95;;;10.80;83.80;;;;;;5027307;28;20053;-76
2022/01/04 00:58:14;;;;;;;6.72;1.98;;;10.80;83.80;;;;;;5026775;28;20133;-78
2022/01/04 01:00:40;;;;;;;12.23;2.72;;;10.80;83.80;;;;;;5025289;28;20108;-77
2022/01/04 01:03:07;;;;;;;7.72;1.90;;;10.80;83.90;;;;;;5026572;28;20028;-77
2022/01/04 01:05:33;;;;;;;8.95;3.72;;;10.80;83.90;;;;;;5024283;28;20447;-77
2022/01/04 01:08:00;;;;;;;5.57;1.92;;;10.80;83.90;;;;;;5046341;28;20393;-78
2022/01/04 01:10:41;;;;;;;3.55;1.85;;;10.80;83.90;;;;;;5045547;28;20158;-77
2022/01/04 01:13:09;;;;;;;8.38;1.90;;;10.80;83.90;;;;;;5045267;28;20033;-77
2022/01/04 01:15:35;;;;;;;8.73;2.10;;;10.80;83.90;;;;;;5046213;28;20029;-79
2022/01/04 01:18:02;;;;;;;5.30;1.95;;;10.80;83.90;;;;;;5044560;28;20667;-77
2022/01/04 01:20:28;;;;;;;8.30;2.03;;;10.80;83.90;;;;;;5046107;28;20033;-77
2022/01/04 01:22:53;;;;;;;9.43;2.30;;;10.80;83.90;;;;;;5048669;28;20036;-77
2022/01/04 01:25:20;;;;;;;11.35;1.95;;;10.80;83.90;;;;;;5048242;28;20041;-77
2022/01/04 01:27:46;;;;;;;6.60;2.50;;;10.80;83.90;;;;;;5064927;28;20029;-77
2022/01/04 01:30:13;;;;;;;6.70;1.92;;;10.80;83.90;;;;;;5050537;28;20114;-77
2022/01/04 01:32:40;;;;;;;5.72;1.73;;;10.80;83.90;;;;;;5049670;28;20029;-78
2022/01/04 01:35:06;;;;;;;9.55;1.65;;;10.70;83.70;;;;;;5049531;28;20516;-77
2022/01/04 01:37:34;;;;;;;7.63;2.13;;;10.70;83.80;;;;;;5047907;28;20127;-77
2022/01/04 01:40:01;;;;;;;6.43;1.92;;;10.80;84.00;;;;;;5065195;28;20446;-77
2022/01/04 01:42:27;;;;;;;14.60;2.72;;;10.70;83.80;;;;;;5049445;28;20025;-78
2022/01/04 01:44:53;;;;;;;11.20;2.58;;;10.70;83.80;;;;;;5065201;28;20502;-78
2022/01/04 01:47:19;;;;;;;9.05;1.92;;;10.70;83.80;;;;;;5056094;28;20062;-78
2022/01/04 01:49:45;;;;;;;10.20;2.40;;;10.70;83.80;;;;;;5069379;28;20028;-78
2022/01/04 01:52:11;;;;;;;6.22;1.98;;;10.70;83.80;;;;;;5051708;28;20038;-78
2022/01/04 01:54:37;;;;;;;8.50;1.70;;;10.60;83.70;;;;;;5051792;28;20025;-79
2022/01/04 01:57:04;;;;;;;4.70;1.60;;;10.60;83.70;;;;;;5051355;28;20075;-77
2022/01/04 01:59:30;;;;;;;11.00;3.05;;;10.60;83.70;;;;;;5069800;28;20036;-78
2022/01/04 02:01:56;;;;;;;6.95;3.70;;;10.60;83.80;;;;;;5069605;28;20028;-78
2022/01/04 02:04:25;;;;;;;7.97;2.20;;;10.60;83.80;;;;;;5069697;28;20044;-78
2022/01/04 02:06:51;;;;;;;6.95;1.90;;;10.60;83.80;;;;;;5067906;28;20097;-78
2022/01/04 02:09:18;;;;;;;9.50;2.20;;;10.60;83.80;;;;;;5069252;28;20033;-77
2022/01/04 02:11:44;;;;;;;7.32;1.80;;;10.50;83.60;;;;;;5068960;28;20033;-77
2022/01/04 02:14:10;;;;;;;8.98;2.38;;;10.50;83.60;;;;;;5069127;28;20213;-78
2022/01/04 02:16:36;;;;;;;7.45;2.03;;;10.50;83.60;;;;;;5069157;28;20032;-77
2022/01/04 02:19:04;;;;;;;9.30;2.25;;;10.50;83.60;;;;;;5068879;28;20029;-77
2022/01/04 02:21:32;;;;;;;9.40;2.20;;;10.50;83.70;;;;;;5070449;28;20039;-78
2022/01/04 02:23:59;;;;;;;12.07;3.72;;;10.50;83.60;;;;;;5071805;28;20115;-77
2022/01/04 02:26:25;;;;;;;6.68;1.67;;;10.40;83.50;;;;;;5071879;28;20037;-78
2022/01/04 02:28:51;;;;;;;8.80;2.17;;;10.40;83.50;;;;;;5053581;28;20373;-78
2022/01/04 02:31:18;;;;;;;8.90;3.30;;;10.40;83.50;;;;;;5075307;28;20060;-78
2022/01/04 02:33:43;;;;;;;4.65;1.58;;;10.40;83.50;;;;;;5066432;28;20059;-78
2022/01/04 02:36:09;;;;;;;5.88;1.70;;;10.40;83.50;;;;;;5053364;28;20037;-77
2022/01/04 02:38:37;;;;;;;7.47;1.70;;;10.40;83.50;;;;;;5079565;28;20033;-77
2022/01/04 02:41:03;;;;;;;7.13;2.00;;;10.40;83.50;;;;;;5031822;28;20403;-78
2022/01/04 02:43:29;;;;;;;8.38;3.63;;;10.40;83.60;;;;;;5050509;28;20449;-77
2022/01/04 02:45:55;;;;;;;7.25;1.98;;;10.40;83.60;;;;;;5058284;28;20097;-77
2022/01/04 02:48:22;;;;;;;8.05;1.80;;;10.40;83.60;;;;;;5086670;28;20048;-78
2022/01/04 02:50:50;;;;;;;13.00;2.55;;;10.40;83.60;;;;;;5084546;28;20514;-78
2022/01/04 02:53:17;;;;;;;7.93;1.83;;;10.40;83.60;;;;;;5093323;28;20048;-78
2022/01/04 02:55:43;;;;;;;7.32;2.20;;;10.40;83.70;;;;;;5056306;28;20024;-78
2022/01/04 02:58:09;;;;;;;9.15;2.22;;;10.40;83.60;;;;;;5071893;28;20040;-78
2022/01/04 03:00:35;;;;;;;5.45;2.42;;;10.40;83.60;;;;;;5072449;28;20032;-78
2022/01/04 03:03:01;;;;;;;8.95;2.20;;;10.40;83.60;;;;;;5072764;28;20040;-77
2022/01/04 03:05:27;;;;;;;7.32;2.28;;;10.40;83.60;;;;;;5072844;28;20037;-78
2022/01/04 03:07:53;;;;;;;8.80;2.83;;;10.40;83.60;;;;;;5072699;28;20091;-79
2022/01/04 03:10:19;;;;;;;9.93;2.22;;;10.40;83.60;;;;;;5071931;28;20636;-78
2022/01/04 03:12:45;;;;;;;8.05;2.15;;;10.40;83.70;;;;;;5072284;28;20203;-78
2022/01/04 03:15:12;;;;;;;8.75;3.08;;;10.40;83.60;;;;;;5072928;28;20032;-78
2022/01/04 03:17:38;;;;;;;8.73;1.92;;;10.40;83.60;;;;;;5072592;28;20399;-78
2022/01/04 03:20:05;;;;;;;10.00;4.05;;;10.40;83.60;;;;;;5073011;28;20035;-78
2022/01/04 03:22:31;;;;;;;6.00;1.77;;;10.40;83.70;;;;;;5072777;28;20476;-79
2022/01/04 03:24:57;;;;;;;7.28;1.52;;;10.30;83.50;;;;;;5072550;28;20032;-78
2022/01/04 03:27:23;;;;;;;10.32;2.05;;;10.30;83.50;;;;;;5072553;28;20032;-78
2022/01/04 03:29:49;;;;;;;5.82;1.90;;;10.30;83.50;;;;;;5072179;28;20503;-78
2022/01/04 03:32:15;;;;;;;9.85;2.22;;;10.30;83.50;;;;;;5071954;28;20078;-77
2022/01/04 03:34:41;;;;;;;9.02;2.28;;;10.20;83.30;;;;;;5072395;28;20458;-78
2022/01/04 03:37:07;;;;;;;12.02;2.45;;;10.20;83.30;;;;;;5070873;28;20025;-78
2022/01/04 03:39:33;;;;;;;6.35;1.75;;;10.20;83.40;;;;;;5072003;28;20043;-78
2022/01/04 03:41:59;;;;;;;6.60;1.70;;;10.20;83.40;;;;;;5071380;28;20506;-78
2022/01/04 03:44:26;;;;;;;5.68;1.70;;;10.10;83.30;;;;;;5053353;28;20078;-78
2022/01/04 03:46:55;;;;;;;5.47;1.80;;;10.10;83.30;;;;;;5054010;28;20040;-78
2022/01/04 03:49:21;;;;;;;6.60;1.60;;;10.10;83.30;;;;;;5070402;28;20365;-78
2022/01/04 03:51:47;;;;;;;5.60;1.67;;;10.10;83.30;;;;;;5071970;28;20191;-78
2022/01/04 03:54:13;;;;;;;4.90;2.28;;;10.10;83.30;;;;;;5072034;28;20033;-78
2022/01/04 03:56:39;;;;;;;7.97;2.05;;;10.10;83.30;;;;;;5072001;28;20077;-78
2022/01/04 03:59:05;;;;;;;8.73;3.28;;;10.00;83.20;;;;;;5071276;28;20067;-77
2022/01/04 04:01:32;;;;;;;8.27;1.65;;;10.00;83.20;;;;;;5071625;28;20056;-77
2022/01/04 04:03:58;;;;;;;6.07;1.90;;;10.00;83.20;;;;;;5070698;28;20062;-77
2022/01/04 04:06:24;;;;;;;9.75;2.15;;;10.00;83.20;;;;;;5071670;28;20431;-77
2022/01/04 04:08:51;;;;;;;8.18;2.30;;;10.00;83.20;;;;;;5071382;28;20029;-77
2022/01/04 04:11:17;;;;;;;9.20;1.77;;;10.00;83.20;;;;;;5070928;28;20126;-78
2022/01/04 04:13:43;;;;;;;8.45;2.60;;;10.00;83.20;;;;;;5071285;28;20020;-77
2022/01/04 04:16:09;;;;;;;5.38;2.00;;;10.00;83.20;;;;;;5053576;28;20033;-78
2022/01/04 04:18:35;;;;;;;5.43;1.45;;;10.00;83.20;;;;;;5053563;28;20029;-77
2022/01/04 04:21:00;;;;;;;7.50;2.05;;;10.00;83.20;;;;;;5053747;28;20063;-77
2022/01/04 04:23:26;;;;;;;6.03;1.85;;;10.00;83.20;;;;;;5071230;28;20029;-77
2022/01/04 04:25:52;;;;;;;5.35;1.58;;;9.90;83.00;;;;;;5053549;28;20037;-78
2022/01/04 04:28:18;;;;;;;6.18;2.28;;;9.90;83.10;;;;;;5071623;28;20036;-78
2022/01/04 04:30:44;;;;;;;7.93;2.45;;;10.00;83.30;;;;;;5071069;28;20028;-78
2022/01/04 04:33:10;;;;;;;7.05;2.20;;;10.00;83.20;;;;;;5071645;28;20024;-78
2022/01/04 04:35:36;;;;;;;8.85;1.75;;;10.00;83.20;;;;;;5071244;28;20032;-78
2022/01/04 04:38:03;;;;;;;7.30;2.22;;;10.00;83.30;;;;;;5071244;28;20468;-78
2022/01/04 04:40:29;;;;;;;5.88;1.48;;;10.00;83.30;;;;;;5071178;28;20025;-78
2022/01/04 04:42:56;;;;;;;5.90;2.00;;;10.00;83.30;;;;;;5070986;28;20013;-78
2022/01/04 04:45:22;;;;;;;4.15;1.80;;;10.00;83.30;;;;;;5071204;28;20032;-78
2022/01/04 04:47:48;;;;;;;4.97;1.50;;;10.00;83.30;;;;;;5071053;28;20053;-78
2022/01/04 04:50:14;;;;;;;10.65;2.25;;;10.00;83.20;;;;;;5071186;28;20025;-78
2022/01/04 04:52:40;;;;;;;14.20;2.20;;;10.00;83.30;;;;;;5071605;28;20043;-79
2022/01/04 04:55:07;;;;;;;3.85;1.60;;;10.00;83.20;;;;;;5070893;28;20076;-79
2022/01/04 04:57:33;;;;;;;8.35;3.10;;;10.00;83.20;;;;;;5071195;28;20043;-78
2022/01/04 04:59:59;;;;;;;9.65;2.55;;;10.10;83.40;;;;;;5070100;28;20028;-80
2022/01/04 05:02:25;;;;;;;7.88;1.80;;;10.00;83.30;;;;;;5071420;28;20031;-78
2022/01/04 05:04:51;;;;;;;6.57;1.80;;;10.00;83.20;;;;;;5070346;28;20085;-78
2022/01/04 05:07:17;;;;;;;5.13;1.90;;;10.10;83.40;;;;;;5071591;28;20435;-78
2022/01/04 05:09:43;;;;;;;10.57;2.83;;;10.00;83.30;;;;;;5054279;28;20058;-79
2022/01/04 05:12:09;;;;;;;10.20;3.50;;;10.10;83.40;;;;;;5070220;28;20377;-78
2022/01/04 05:14:37;;;;;;;7.95;1.58;;;10.10;83.40;;;;;;5070881;28;20358;-78
2022/01/04 05:17:03;;;;;;;10.18;2.10;;;10.10;83.40;;;;;;5052870;28;20279;-78
2022/01/04 05:19:29;;;;;;;5.93;1.60;;;10.10;83.50;;;;;;5070915;28;20503;-77
2022/01/04 05:21:55;;;;;;;5.38;1.42;;;10.00;83.30;;;;;;5071253;28;20025;-78
2022/01/04 05:24:21;;;;;;;4.40;1.55;;;10.10;83.50;;;;;;5071275;28;20074;-78
2022/01/04 05:26:47;;;;;;;4.70;1.70;;;10.10;83.40;;;;;;5071569;28;20047;-78
2022/01/04 05:29:13;;;;;;;6.80;1.50;;;10.10;83.40;;;;;;5070947;28;20029;-78
2022/01/04 05:31:39;;;;;;;8.05;1.45;;;10.10;83.50;;;;;;5070931;28;20032;-78
2022/01/04 05:34:05;;;;;;;6.70;1.80;;;10.10;83.50;;;;;;5053548;28;20028;-78
2022/01/04 05:36:31;;;;;;;3.78;1.35;;;10.10;83.50;;;;;;5075639;28;20383;-77
2022/01/04 05:38:57;;;;;;;6.82;1.45;;;10.10;83.50;;;;;;5053508;28;20384;-78
2022/01/04 05:41:23;;;;;;;4.38;1.25;;;10.10;83.50;;;;;;5070854;28;20029;-77
2022/01/04 05:43:49;;;;;;;6.63;1.67;;;10.00;83.30;;;;;;5070797;28;20135;-78
2022/01/04 05:46:16;;;;;;;6.13;1.98;;;10.00;83.30;;;;;;5070521;28;20408;-78
2022/01/04 05:48:42;;;;;;;4.60;1.45;;;10.00;83.30;;;;;;5051373;28;20052;-78
2022/01/04 05:51:08;;;;;;;6.05;1.10;;;10.00;83.30;;;;;;5053165;28;20115;-78
2022/01/04 05:53:34;;;;;;;7.65;1.65;;;10.00;83.30;;;;;;5071262;28;20052;-79
2022/01/04 05:56:00;;;;;;;12.00;2.67;;;10.00;83.30;;;;;;5050917;28;20075;-77
2022/01/04 05:58:26;;;;;;;7.30;2.00;;;10.00;83.30;;;;;;5062164;28;20044;-78
2022/01/04 06:00:52;;;;;;;5.13;1.90;;;10.00;83.30;;;;;;5046647;28;20484;-78
2022/01/04 06:03:18;;;;;;;6.90;1.70;;;10.00;83.40;;;;;;5045908;28;20476;-80
2022/01/04 06:05:44;;;;;;;5.95;1.80;;;10.00;83.30;;;;;;5062191;28;20044;-78
2022/01/04 06:08:11;;;;;;;6.07;1.35;;;10.00;83.30;;;;;;5064221;28;20032;-79
2022/01/04 06:10:40;;;;;;;7.05;1.25;;;10.00;83.30;;;;;;5050315;28;20039;-79
2022/01/04 06:15:32;;;;;;;7.07;1.17;;;10.10;83.50;;;;;;5056431;28;20033;-79
2022/01/04 06:17:59;;;;;;;7.78;1.45;;;10.00;83.30;;;;;;5055885;28;20037;-80
2022/01/04 06:20:27;;;;;;;6.65;1.38;;;10.10;83.50;;;;;;5052228;28;20040;-78
2022/01/04 06:22:54;;;;;;;6.97;1.40;;;10.10;83.50;;;;;;5052585;28;20033;-79
2022/01/04 06:25:22;;;;;;;6.72;1.40;;;10.10;83.50;;;;;;5058095;28;20135;-78
2022/01/04 06:27:50;;;;;;;5.53;1.42;;;10.10;83.50;;;;;;5078731;28;20128;-77
2022/01/04 06:30:18;;;;;;;7.05;1.58;;;10.10;83.50;;;;;;5072887;28;20024;-78
2022/01/04 06:32:45;;;;;;;5.07;1.45;;;10.10;83.50;;;;;;5062806;28;20510;-78
2022/01/04 06:35:13;;;;;;;3.72;1.45;;;10.10;83.50;;;;;;5055433;28;20024;-79
2022/01/04 06:37:41;;;;;;;7.90;2.58;;;10.10;83.50;;;;;;5075169;28;20052;-77
2022/01/04 06:40:08;;;;;;;8.45;1.80;;;10.10;83.50;;;;;;5060214;28;20136;-77
2022/01/04 06:42:34;;;;;;;5.93;1.02;;;10.10;83.50;;;;;;5079044;28;20385;-78
2022/01/04 06:45:00;;;;;;;7.20;1.08;;;10.10;83.50;;;;;;5045434;28;20275;-77
2022/01/04 06:47:26;;;;;;;7.72;2.75;;;10.10;83.60;;;;;;5075052;28;20134;-78
2022/01/04 06:49:52;;;;;;;3.03;0.80;;;10.10;83.60;;;;;;5080468;28;20031;-77
2022/01/04 06:52:18;;;;;;;3.80;0.98;;;10.10;83.60;;;;;;5074001;28;20440;-78
2022/01/04 06:54:45;;;;;;;3.80;1.05;;;10.20;83.70;;;;;;5031094;28;20075;-77
2022/01/04 06:57:11;;;;;;;2.60;1.33;;;10.10;83.40;;;;;;5072009;28;20037;-77
2022/01/04 06:59:37;;;;;;;4.03;1.05;;;10.10;83.40;;;;;;5080704;28;20039;-77
2022/01/04 07:02:03;;;;;;;3.83;0.90;;;10.10;83.50;;;;;;5062098;28;20471;-78
2022/01/04 07:04:29;;;;;;;3.83;0.93;;;10.00;83.30;;;;;;5067827;28;20037;-78
2022/01/04 07:06:55;;;;;;;1.90;0.65;;;10.10;83.50;;;;;;5068129;28;20518;-76
2022/01/04 07:09:21;;;;;;;2.22;0.65;;;10.00;83.30;;;;;;5062761;28;20111;-77
2022/01/04 07:11:47;;;;;;;1.40;0.60;;;10.00;83.30;;;;;;5068577;28;20131;-77
2022/01/04 07:14:13;;;;;;;1.40;0.70;;;9.90;83.20;;;;;;5065088;28;20523;-77
2022/01/04 07:16:39;;;;;;;2.25;0.90;;;9.90;83.10;;;;;;5048395;28;20040;-78
2022/01/04 07:19:05;;;;;;;1.05;0.70;;;9.80;83.00;;;;;;5056330;28;20244;-76
2022/01/04 07:21:31;;;;;;;1.77;1.10;;;9.80;82.90;;;;;;5067503;28;20044;-77
2022/01/04 07:23:57;;;;;;;1.75;0.90;;;9.80;83.00;;;;;;5067196;28;20029;-78
2022/01/04 07:26:24;;;;;;;1.13;0.60;;;9.70;82.80;;;;;;5067621;28;20036;-78
2022/01/04 07:28:51;;;;;;;1.10;0.80;;;9.70;82.80;;;;;;5049692;28;20033;-78
2022/01/04 07:31:18;;;;;;;5.40;1.30;;;9.70;82.80;;;;;;5074622;28;20024;-75
2022/01/04 07:33:45;;;;;;;1.88;1.20;;;9.60;82.60;;;;;;5060904;28;20588;-75
2022/01/04 07:36:13;;;;;;;1.48;1.35;;;9.60;82.80;;;;;;5080781;28;20112;-75
2022/01/04 07:38:39;;;;;;;3.72;1.80;;;9.60;82.80;;;;;;5065578;28;20028;-75
2022/01/04 07:41:05;;;;;;;1.75;1.63;;;9.70;83.00;;;;;;5046528;28;20039;-74
2022/01/04 07:43:32;;;;;;;5.18;1.75;;;9.60;83.10;;;;;;5046941;28;20152;-74
2022/01/04 07:45:58;;;;;;;2.47;1.75;;;9.70;83.20;;;;;;5045635;28;20056;-74
2022/01/04 07:48:24;;;;;;;2.90;1.80;;;9.70;83.20;;;;;;5047337;28;20104;-74
2022/01/04 07:50:50;;;;;;;2.45;1.88;;;9.70;83.10;;;;;;5047241;28;20481;-74
2022/01/04 07:53:16;;;;;;;3.67;2.42;;;9.70;83.10;;;;;;5046845;28;20057;-74
2022/01/04 07:55:43;;;;;;;2.88;2.28;;;9.70;83.10;;;;;;5028936;28;20033;-75
2022/01/04 07:58:09;;;;;;;3.20;2.67;;;9.60;82.90;;;;;;5050750;28;20029;-74
2022/01/04 08:00:35;;;;;;;2.28;2.08;;;9.60;82.90;;;;;;5061984;28;20055;-74
2022/01/04 08:03:03;;;;;;;3.45;2.95;;;9.60;83.00;;;;;;5058049;28;20037;-74
2022/01/04 08:05:29;;;;;;;2.50;2.30;;;9.50;82.70;;;;;;5045347;28;20033;-74
2022/01/04 08:07:55;;;;;;;2.67;2.47;;;9.50;82.70;;;;;;5047001;28;20499;-75
2022/01/04 08:10:21;;;;;;;3.03;2.80;;;9.40;83.10;;;;;;5029640;28;20132;-74
2022/01/04 08:12:47;;;;;;;3.67;2.80;;;9.40;82.60;;;;;;5035010;28;20488;-75
2022/01/04 08:15:13;;;;;;;3.30;2.72;;;9.40;82.60;;;;;;5065797;28;20404;-74
2022/01/04 08:17:40;;;;;;;2.78;2.58;;;9.30;82.40;;;;;;5066509;28;20032;-74
2022/01/04 08:20:07;;;;;;;2.20;2.00;;;9.30;82.40;;;;;;5065927;28;20026;-74
2022/01/04 08:22:34;;;;;;;3.67;2.13;;;9.30;82.40;;;;;;5066656;28;20075;-75
2022/01/04 08:25:03;;;;;;;2.72;1.92;;;9.20;82.20;;;;;;5066043;28;20037;-75
2022/01/04 08:27:29;;;;;;;2.28;2.08;;;9.20;82.20;;;;;;5065759;28;20459;-74
2022/01/04 08:29:55;;;;;;;2.00;1.90;;;9.20;82.10;;;;;;5066269;28;20112;-74
2022/01/04 08:32:22;;;;;;;2.20;2.00;;;9.10;82.00;;;;;;5065686;28;20032;-74
2022/01/04 08:34:48;;;;;;;2.22;2.03;;;9.10;81.90;;;;;;5066508;28;20040;-74
2022/01/04 08:37:14;;;;;;;1.80;1.70;;;9.10;81.90;;;;;;5066654;28;20050;-74
2022/01/04 08:39:40;;;;;;;2.17;1.75;;;9.10;81.90;;;;;;5047734;28;20052;-74
2022/01/04 08:42:06;;;;;;;1.80;1.70;;;9.00;81.70;;;;;;5065225;28;20029;-74
2022/01/04 08:44:33;;;;;;;1.40;1.30;;;9.00;81.70;;;;;;5064260;28;20074;-74
2022/01/04 08:46:59;;;;;;;2.85;1.50;;;9.00;81.60;;;;;;5065437;28;20084;-75
2022/01/04 08:49:26;;;;;;;1.98;1.73;;;8.90;81.40;;;;;;5065282;28;20028;-75
2022/01/04 08:51:52;;;;;;;1.58;1.48;;;8.90;81.40;;;;;;5065134;28;20024;-74
2022/01/04 08:54:18;;;;;;;1.85;1.27;;;8.90;81.30;;;;;;5065014;28;20438;-75
2022/01/04 08:56:44;;;;;;;1.60;1.50;;;8.90;81.30;;;;;;5065186;28;20036;-75
2022/01/04 08:59:13;;;;;;;1.10;1.02;;;8.90;81.30;;;;;;5064598;28;20215;-74
2022/01/04 09:01:40;;;;;;;1.20;1.10;;;8.90;81.20;;;;;;5065098;28;20491;-74
2022/01/04 09:04:08;;;;;;;1.45;1.33;;;8.80;81.00;;;;;;5025944;28;20476;-74
2022/01/04 09:06:35;;;;;;;1.50;1.40;;;8.80;81.00;;;;;;5036164;28;20037;-75
2022/01/04 09:09:00;;;;;;;1.40;1.30;;;8.80;80.90;;;;;;5065793;28;20029;-75
2022/01/04 09:11:26;;;;;;;2.05;1.17;;;8.80;80.90;;;;;;5065814;28;20059;-75
2022/01/04 09:14:12;;;;;;;1.05;1.02;;;8.80;80.80;;;;;;5059820;28;20048;-76
2022/01/04 09:19:26;;;;;;;0.70;0.70;;;8.80;80.70;;;;;;5049327;28;20408;-77
2022/01/04 09:21:52;;;;;;;1.10;1.00;;;8.90;80.70;;;;;;5045931;28;20036;-76
2022/01/04 09:24:18;;;;;;;1.20;0.95;;;8.90;80.60;;;;;;5045491;28;20496;-76
2022/01/04 09:26:45;;;;;;;2.05;0.80;;;9.00;80.60;;;;;;5045765;28;20033;-76
2022/01/04 09:29:11;;;;;;;0.68;0.63;;;9.00;81.00;;;;;;5046061;28;20035;-76
2022/01/04 09:31:37;;;;;;;1.38;0.75;;;9.00;80.30;;;;;;5045494;28;20099;-76
2022/01/04 09:34:04;;;;;;;1.35;0.60;;;9.00;80.20;;;;;;5042372;28;20524;-75
2022/01/04 09:36:34;;;;;;;1.38;0.70;;;9.10;80.30;;;;;;5048737;28;20040;-74
2022/01/04 09:39:01;;;;;;;0.50;0.50;;;9.00;80.00;;;;;;5048202;28;20029;-74
2022/01/04 09:41:28;;;;;;;2.88;0.65;;;9.00;79.90;;;;;;5049650;28;20447;-74
2022/01/04 09:43:54;;;;;;;0.80;0.70;;;9.10;80.10;;;;;;5059132;28;20550;-74
2022/01/04 09:46:20;;;;;;;1.52;0.70;;;9.00;79.80;;;;;;5068693;28;20047;-75
2022/01/04 09:48:46;;;;;;;1.75;0.60;;;9.00;79.80;;;;;;5059713;28;20049;-75
2022/01/04 09:51:14;;;;;;;3.03;0.52;;;9.00;79.70;;;;;;5049563;28;20025;-74
2022/01/04 09:53:40;;;;;;;1.23;0.52;;;9.00;79.70;;;;;;5042579;28;20029;-74
2022/01/04 09:56:07;;;;;;;0.70;0.70;;;9.00;79.70;;;;;;5049841;28;20028;-74
2022/01/04 09:58:34;;;;;;;0.65;0.52;;;8.90;79.50;;;;;;5048180;28;20120;-74
2022/01/04 10:01:00;;;;;;;1.85;0.60;;;8.90;79.60;;;;;;5049366;28;20021;-74
2022/01/04 10:03:29;;;;;;;0.90;0.55;;;8.90;79.60;;;;;;5048643;28;20048;-74
2022/01/04 10:06:14;;;;;;;1.30;0.70;;;8.90;79.50;;;;;;5047755;28;20037;-75
2022/01/04 10:09:11;;;;;;;2.30;0.85;;;8.80;79.40;;;;;;5049154;28;20029;-74
2022/01/04 10:11:47;;;;;;;1.55;1.02;;;8.80;79.40;;;;;;5032721;28;20041;-74
2022/01/04 10:14:36;;;;;;;1.30;0.80;;;8.90;79.60;;;;;;5054284;28;20123;-75
2022/01/04 10:17:25;;;;;;;1.58;0.77;;;8.90;79.50;;;;;;5068744;28;20020;-75
2022/01/04 10:19:54;;;;;;;1.00;0.80;;;8.90;79.40;;;;;;5049071;28;20033;-75
2022/01/04 10:22:20;;;;;;;1.52;0.90;;;9.00;79.60;;;;;;5048324;28;20112;-74
2022/01/04 10:24:49;;;;;;;1.67;0.98;;;9.00;79.50;;;;;;5049128;28;20121;-74
2022/01/04 10:27:43;;;;;;;0.70;0.70;;;9.00;79.40;;;;;;5049257;28;20453;-74
2022/01/04 10:30:28;;;;;;;1.70;0.65;;;9.00;79.20;;;;;;5066759;28;20037;-75
2022/01/04 10:32:58;;;;;;;1.92;1.00;;;9.10;79.30;;;;;;5068737;28;20496;-74
2022/01/04 10:35:32;;;;;;;1.70;1.02;;;9.10;79.20;;;;;;5060528;28;20017;-73
2022/01/04 10:38:21;;;;;;;1.90;0.90;;;9.10;79.20;;;;;;5030816;28;20039;-73
2022/01/04 10:41:00;;;;;;;1.88;0.73;;;9.10;79.10;;;;;;5047338;28;20029;-73
2022/01/04 10:43:48;;;;;;;0.98;0.85;;;9.10;79.00;;;;;;5056365;28;20065;-73
2022/01/04 10:46:18;;;;;;;3.80;1.05;;;9.10;79.00;;;;;;5047165;28;20045;-73
2022/01/04 10:48:46;;;;;;;2.28;1.13;;;9.10;79.00;;;;;;5047452;28;20049;-73
2022/01/04 10:51:14;;;;;;;3.40;0.95;;;9.20;79.10;;;;;;5030383;28;20032;-73
2022/01/04 10:53:42;;;;;;;2.13;0.80;;;9.20;79.00;;;;;;5046917;28;20176;-73
2022/01/04 10:56:14;;;;;;;3.22;0.80;;;9.20;78.90;;;;;;5048382;28;20381;-73
2022/01/04 10:58:40;;;;;;;2.03;1.17;;;9.20;78.80;;;;;;5048119;28;20040;-73
2022/01/04 11:01:18;;;;;;;3.53;0.80;;;9.30;78.90;;;;;;5047815;28;20094;-73
2022/01/04 11:03:51;;;;;;;1.85;0.85;;;9.30;78.80;;;;;;5048032;28;20036;-74
2022/01/04 11:06:31;;;;;;;3.13;1.13;;;9.40;78.80;;;;;;5047412;28;20028;-74
2022/01/04 11:08:58;;;;;;;3.60;0.75;;;9.40;78.70;;;;;;5047971;28;20060;-73
2022/01/04 11:11:25;;;;;;;3.40;0.88;;;9.40;78.60;;;;;;5029723;28;20063;-74
2022/01/04 11:13:51;;;;;;;3.55;0.95;;;9.50;78.60;;;;;;5047320;28;20518;-74
2022/01/04 11:16:23;;;;;;;2.38;0.80;;;9.60;78.70;;;;;;5029203;28;20033;-73
2022/01/04 11:18:52;;;;;;;3.90;1.00;;;9.60;78.50;;;;;;5046586;28;20338;-73
2022/01/04 11:21:33;;;;;;;1.58;0.88;;;9.70;78.60;;;;;;5047797;28;20025;-73
2022/01/04 11:24:06;;;;;;;2.80;1.08;;;9.70;78.40;;;;;;5061682;28;20031;-73
2022/01/04 11:26:32;;;;;;;3.88;1.08;;;9.80;78.50;;;;;;5067039;28;20040;-73
2022/01/04 11:28:59;;;;;;;3.55;1.20;;;9.80;78.30;;;;;;5055678;28;20083;-73
2022/01/04 11:31:51;;;;;;;2.15;0.70;;;9.90;78.30;;;;;;5047568;28;20423;-73
2022/01/04 11:34:36;;;;;;;2.10;1.08;;;10.00;78.30;;;;;;5047243;28;20029;-73
2022/01/04 11:37:02;;;;;;;3.72;0.80;;;10.00;78.20;;;;;;5047373;28;20028;-74
2022/01/04 11:39:31;;;;;;;3.22;0.88;;;10.10;78.30;;;;;;5047029;28;20037;-73
2022/01/04 11:41:59;;;;;;;2.90;0.90;;;10.10;78.00;;;;;;5047222;28;20029;-74
2022/01/04 11:44:28;;;;;;;3.35;1.85;;;10.20;78.00;;;;;;5045041;28;20029;-74
2022/01/04 11:46:59;;;;;;;4.20;1.67;;;10.20;77.90;;;;;;5046631;28;20454;-74
2022/01/04 11:49:25;;;;;;;3.13;0.90;;;10.20;77.70;;;;;;5045518;28;20037;-72
2022/01/04 11:51:51;;;;;;;2.85;0.95;;;10.20;77.70;;;;;;5045283;28;20040;-73
2022/01/04 11:54:27;;;;;;;3.42;1.30;;;10.30;78.20;;;;;;5045989;28;20481;-73
2022/01/04 11:56:56;;;;;;;2.58;0.70;;;10.50;79.20;;;;;;5046171;28;20083;-74
2022/01/04 11:59:27;;;;;;;1.70;0.68;;;10.60;78.60;;;;;;5045988;28;20128;-75
2022/01/04 12:01:54;;;;;;;2.42;1.55;;;10.70;78.40;;;;;;5045321;28;20520;-73
2022/01/04 12:04:58;;;;;;;4.13;0.98;;;10.70;78.20;;;;;;5046238;28;20470;-73
2022/01/04 12:07:41;;;;;;;4.88;1.10;;;10.70;78.10;;;;;;4985031;28;20057;-75
2022/01/04 12:10:20;;;;;;;2.50;1.10;;;10.60;78.00;;;;;;5025876;28;20082;-76
2022/01/04 12:13:04;;;;;;;7.40;1.55;;;10.50;77.80;;;;;;5045414;28;20075;-75
2022/01/04 12:15:33;;;;;;;2.95;1.05;;;10.50;78.10;;;;;;5046223;28;20048;-74
2022/01/04 12:18:24;;;;;;;3.47;1.33;;;10.40;78.00;;;;;;5045201;28;20094;-75
2022/01/04 12:20:52;;;;;;;3.95;1.10;;;10.30;77.90;;;;;;5046566;28;20037;-74
2022/01/04 12:23:31;;;;;;;4.88;1.35;;;10.20;77.90;;;;;;5046060;28;20437;-73
2022/01/04 12:26:06;;;;;;;2.25;0.70;;;10.10;77.80;;;;;;5046163;28;20556;-73
2022/01/04 12:28:37;;;;;;;5.43;1.00;;;10.10;77.80;;;;;;5036983;28;20104;-75
2022/01/04 12:31:19;;;;;;;4.97;0.80;;;10.10;77.90;;;;;;5048715;28;20083;-75
2022/01/04 12:33:55;;;;;;;6.97;1.00;;;10.00;77.80;;;;;;5053318;28;20377;-75
2022/01/04 12:36:27;;;;;;;3.13;0.85;;;10.00;77.80;;;;;;5030878;28;20056;-75
2022/01/04 12:38:55;;;;;;;4.55;1.65;;;9.90;77.70;;;;;;5053420;28;20032;-76
2022/01/04 12:41:21;;;;;;;3.63;1.00;;;9.90;77.70;;;;;;5044880;28;20071;-75
2022/01/04 12:43:49;;;;;;;4.45;1.25;;;9.90;77.70;;;;;;5046120;28;20116;-76
2022/01/04 12:46:26;;;;;;;3.33;1.17;;;9.90;77.70;;;;;;5045251;28;20029;-75
2022/01/04 12:48:59;;;;;;;3.72;1.30;;;9.90;77.60;;;;;;5045852;28;20060;-75
2022/01/04 12:51:40;;;;;;;5.70;1.40;;;9.90;77.50;;;;;;5061227;28;20300;-75
2022/01/04 12:54:06;;;;;;;6.32;2.70;;;9.80;76.80;;;;;;5053765;28;20028;-76
2022/01/04 12:56:43;;;;;;;6.35;1.55;;;9.80;76.60;;;;;;5066095;28;20650;-75
2022/01/04 12:59:19;;;;;;;7.47;1.20;;;9.70;76.10;;;;;;5061759;28;20058;-76
2022/01/04 13:01:50;;;;;;;10.43;1.98;;;9.70;76.00;;;;;;5065956;28;20032;-75
2022/01/04 13:04:45;;;;;;;9.20;1.92;;;9.60;76.00;;;;;;5047910;28;20475;-75
2022/01/04 13:07:22;;;;;;;7.20;1.83;;;9.70;75.90;;;;;;5043375;28;20056;-76